createdAt,value
2023-03-13T00:02:04.315Z,7.92
2023-03-13T00:04:53.943Z,7.79
2023-03-13T00:07:45.574Z,7.92
2023-03-13T00:10:37.928Z,7.94
2023-03-13T00:13:28.046Z,7.78
2023-03-13T00:16:17.681Z,7.59
2023-03-13T00:19:08.470Z,7.66
2023-03-13T00:21:57.044Z,7.50
2023-03-13T00:24:47.502Z,7.66
2023-03-13T00:27:37.531Z,7.45
2023-03-13T00:30:28.079Z,7.58
2023-03-13T00:33:17.101Z,7.62
2023-03-13T00:36:07.759Z,7.66
2023-03-13T00:38:58.658Z,7.65
2023-03-13T00:41:47.915Z,7.53
2023-03-13T00:44:38.809Z,7.54
2023-03-13T00:47:29.600Z,7.63
2023-03-13T00:50:18.231Z,7.42
2023-03-13T00:53:08.553Z,7.55
2023-03-13T00:55:58.978Z,7.16
2023-03-13T00:58:50.365Z,7.46
2023-03-13T01:01:40.339Z,7.48
2023-03-13T01:04:29.680Z,7.35
2023-03-13T01:07:18.741Z,7.45
2023-03-13T01:10:09.951Z,7.46
2023-03-13T01:12:58.973Z,7.33
2023-03-13T01:15:47.656Z,7.27
2023-03-13T01:18:38.778Z,7.34
2023-03-13T01:21:28.605Z,7.24
2023-03-13T01:24:19.559Z,7.20
2023-03-13T01:27:08.128Z,7.14
2023-03-13T01:29:58.605Z,7.15
2023-03-13T01:32:48.047Z,7.17
2023-03-13T01:35:38.795Z,7.19
2023-03-13T01:38:27.328Z,7.14
2023-03-13T01:41:16.373Z,7.11
2023-03-13T01:44:05.594Z,7.03
2023-03-13T01:46:57.508Z,7.11
2023-03-13T01:49:46.479Z,7.09
2023-03-13T01:52:52.240Z,7.10
2023-03-13T01:55:45.957Z,7.09
2023-03-13T01:58:34.599Z,7.14
2023-03-13T02:01:25.151Z,7.12
2023-03-13T02:04:15.625Z,7.14
2023-03-13T02:07:09.159Z,7.18
2023-03-13T02:10:00.510Z,7.19
2023-03-13T02:12:50.212Z,7.19
2023-03-13T02:15:38.808Z,7.20
2023-03-13T02:18:27.521Z,7.14
2023-03-13T02:21:26.230Z,7.15
2023-03-13T02:24:23.370Z,7.17
2023-03-13T02:27:14.198Z,7.16
2023-03-13T02:30:05.909Z,7.15
2023-03-13T02:32:55.431Z,7.16
2023-03-13T02:35:46.145Z,7.15
2023-03-13T02:38:45.546Z,6.73
2023-03-13T02:41:35.656Z,7.14
2023-03-13T02:44:27.020Z,7.14
2023-03-13T02:47:19.538Z,7.13
2023-03-13T02:50:10.422Z,7.13
2023-03-13T02:53:03.868Z,7.14
2023-03-13T02:55:53.675Z,7.09
2023-03-13T02:58:51.343Z,7.06
2023-03-13T03:01:46.223Z,7.08
2023-03-13T03:04:34.733Z,7.06
2023-03-13T03:07:24.351Z,7.08
2023-03-13T03:10:14.510Z,7.04
2023-03-13T03:13:03.801Z,6.92
2023-03-13T03:15:52.590Z,6.97
2023-03-13T03:18:43.018Z,7.00
2023-03-13T03:21:32.148Z,6.97
2023-03-13T03:24:21.098Z,6.99
2023-03-13T03:27:10.047Z,6.95
2023-03-13T03:30:06.337Z,6.93
2023-03-13T03:32:58.162Z,6.94
2023-03-13T03:35:48.334Z,6.45
2023-03-13T03:38:38.847Z,6.93
2023-03-13T03:41:28.755Z,6.91
2023-03-13T03:44:18.081Z,6.83
2023-03-13T03:47:18.797Z,6.68
2023-03-13T03:50:11.061Z,6.80
2023-03-13T03:53:10.784Z,6.79
2023-03-13T03:55:59.828Z,6.81
2023-03-13T03:58:48.923Z,6.73
2023-03-13T04:01:56.808Z,6.76
2023-03-13T04:04:47.770Z,6.72
2023-03-13T04:07:41.681Z,6.66
2023-03-13T04:10:32.025Z,6.58
2023-03-13T04:13:21.082Z,6.64
2023-03-13T04:16:10.938Z,6.61
2023-03-13T04:19:00.806Z,6.59
2023-03-13T04:21:49.630Z,6.47
2023-03-13T04:24:41.265Z,6.56
2023-03-13T04:27:31.947Z,6.49
2023-03-13T04:30:21.106Z,6.48
2023-03-13T04:33:28.620Z,6.43
2023-03-13T04:36:37.394Z,6.39
2023-03-13T04:39:34.865Z,6.42
2023-03-13T04:42:47.741Z,6.44
2023-03-13T04:45:56.542Z,6.39
2023-03-13T04:49:09.025Z,6.36
2023-03-13T04:52:26.387Z,6.39
2023-03-13T04:55:33.481Z,6.36
2023-03-13T04:58:45.009Z,6.36
2023-03-13T05:01:48.695Z,6.31
2023-03-13T05:05:01.005Z,6.24
2023-03-13T05:08:10.877Z,6.28
2023-03-13T05:11:23.499Z,6.32
2023-03-13T05:14:45.372Z,6.34
2023-03-13T05:17:54.515Z,6.36
2023-03-13T05:20:43.315Z,6.39
2023-03-13T05:23:58.521Z,6.46
2023-03-13T05:27:06.051Z,6.54
2023-03-13T05:29:56.030Z,6.51
2023-03-13T05:33:14.147Z,6.52
2023-03-13T05:36:11.909Z,6.55
2023-03-13T05:39:10.273Z,6.52
2023-03-13T05:42:10.699Z,6.49
2023-03-13T05:45:20.402Z,6.49
2023-03-13T05:48:32.907Z,6.50
2023-03-13T05:51:51.023Z,6.50
2023-03-13T05:54:59.417Z,6.50
2023-03-13T05:58:13.983Z,6.45
2023-03-13T06:01:30.233Z,6.51
2023-03-13T06:04:25.905Z,6.53
2023-03-13T06:07:15.406Z,6.52
2023-03-13T06:10:06.115Z,6.52
2023-03-13T06:12:55.853Z,6.50
2023-03-13T06:15:52.927Z,6.49
2023-03-13T06:18:59.453Z,6.53
2023-03-13T06:21:48.753Z,6.60
2023-03-13T06:24:37.568Z,6.61
2023-03-13T06:27:26.978Z,6.60
2023-03-13T06:30:15.757Z,6.64
2023-03-13T06:36:14.122Z,6.69
2023-03-13T06:39:03.117Z,6.82
2023-03-13T06:41:52.322Z,6.68
2023-03-13T06:44:44.596Z,6.81
2023-03-13T06:47:33.662Z,6.72
2023-03-13T06:50:22.229Z,6.90
2023-03-13T06:53:15.798Z,6.87
2023-03-13T06:56:06.207Z,6.82
2023-03-13T06:58:55.299Z,6.81
2023-03-13T07:01:44.493Z,6.80
2023-03-13T07:04:33.160Z,6.80
2023-03-13T07:07:31.863Z,6.81
2023-03-13T07:10:25.080Z,6.78
2023-03-13T07:13:15.170Z,6.82
2023-03-13T07:16:05.396Z,6.82
2023-03-13T07:18:54.527Z,6.89
2023-03-13T07:21:44.067Z,6.89
2023-03-13T07:24:32.730Z,6.93
2023-03-13T07:27:22.974Z,6.95
2023-03-13T07:30:13.527Z,6.97
2023-03-13T07:33:02.224Z,6.96
2023-03-13T07:35:53.075Z,6.94
2023-03-13T07:38:44.274Z,7.18
2023-03-13T07:41:33.932Z,7.24
2023-03-13T07:44:23.817Z,7.27
2023-03-13T07:47:12.811Z,7.28
2023-03-13T07:50:01.395Z,7.28
2023-03-13T07:52:50.809Z,7.29
2023-03-13T07:55:39.373Z,7.35
2023-03-13T07:58:31.144Z,7.43
2023-03-13T08:01:25.605Z,7.47
2023-03-13T08:04:15.517Z,7.57
2023-03-13T08:07:04.049Z,7.66
2023-03-13T08:09:53.016Z,7.45
2023-03-13T08:12:41.528Z,7.91
2023-03-13T08:15:31.252Z,8.05
2023-03-13T08:18:21.113Z,8.14
2023-03-13T08:21:12.745Z,8.27
2023-03-13T08:24:05.776Z,8.45
2023-03-13T08:26:54.968Z,8.61
2023-03-13T08:29:43.589Z,8.53
2023-03-13T08:32:34.138Z,8.77
2023-03-13T08:35:25.015Z,8.81
2023-03-13T08:38:13.559Z,8.93
2023-03-13T08:41:02.129Z,8.98
2023-03-13T08:43:54.341Z,9.06
2023-03-13T08:46:43.925Z,9.17
2023-03-13T08:49:33.043Z,9.29
2023-03-13T08:52:23.010Z,9.36
2023-03-13T08:55:11.742Z,9.44
2023-03-13T08:58:00.344Z,9.45
2023-03-13T09:00:49.493Z,9.51
2023-03-13T09:03:39.308Z,9.48
2023-03-13T09:06:27.962Z,9.75
2023-03-13T09:09:18.260Z,9.85
2023-03-13T09:12:07.945Z,10.01
2023-03-13T09:14:58.234Z,10.29
2023-03-13T09:17:46.801Z,10.43
2023-03-13T09:20:36.203Z,10.54
2023-03-13T09:23:25.448Z,10.65
2023-03-13T09:26:16.810Z,10.89
2023-03-13T09:29:05.339Z,11.07
2023-03-13T09:31:54.327Z,11.31
2023-03-13T09:34:42.850Z,11.56
2023-03-13T09:37:32.357Z,11.73
2023-03-13T09:40:23.234Z,12.17
2023-03-13T09:43:27.188Z,12.20
2023-03-13T09:46:19.851Z,12.35
2023-03-13T09:49:18.158Z,12.67
2023-03-13T09:52:16.717Z,12.97
2023-03-13T09:55:12.002Z,13.13
2023-03-13T09:58:05.362Z,13.51
2023-03-13T10:00:58.990Z,13.45
2023-03-13T10:04:00.195Z,13.52
2023-03-13T10:06:52.068Z,14.12
2023-03-13T10:09:41.779Z,14.15
2023-03-13T10:12:39.029Z,14.37
2023-03-13T10:15:40.373Z,14.56
2023-03-13T10:18:31.115Z,14.20
2023-03-13T10:21:22.265Z,13.98
2023-03-13T10:24:18.869Z,13.95
2023-03-13T10:27:09.819Z,14.03
2023-03-13T10:29:58.770Z,14.16
2023-03-13T10:32:47.442Z,14.07
2023-03-13T10:35:40.991Z,14.12
2023-03-13T10:38:30.071Z,14.11
2023-03-13T10:41:30.850Z,14.16
2023-03-13T10:44:22.691Z,14.19
2023-03-13T10:47:14.316Z,14.30
2023-03-13T10:50:05.339Z,14.39
2023-03-13T10:52:56.214Z,14.39
2023-03-13T10:55:48.005Z,14.43
2023-03-13T11:06:29.027Z,14.89
2023-03-13T11:09:19.491Z,14.92
2023-03-13T11:12:15.337Z,14.95
2023-03-13T11:15:12.634Z,15.16
2023-03-13T11:18:07.284Z,15.39
2023-03-13T11:21:15.624Z,15.64
2023-03-13T11:24:11.713Z,15.82
2023-03-13T11:27:14.048Z,15.89
2023-03-13T11:30:17.551Z,16.09
2023-03-13T11:33:18.898Z,16.45
2023-03-13T11:36:16.296Z,16.98
2023-03-13T11:53:09.323Z,18.56
2023-03-13T11:56:07.043Z,18.64
2023-03-13T11:59:08.016Z,18.95
2023-03-13T12:02:02.338Z,18.98
2023-03-13T12:04:58.751Z,19.16
2023-03-13T12:07:53.785Z,19.35
2023-03-13T12:10:47.297Z,19.50
2023-03-13T12:13:39.551Z,19.89
2023-03-13T12:16:41.105Z,19.88
2023-03-13T12:19:33.937Z,19.66
2023-03-13T12:22:32.065Z,19.45
2023-03-13T12:25:25.747Z,20.13
2023-03-13T12:28:26.089Z,20.61
2023-03-13T12:31:23.598Z,20.86
2023-03-13T12:34:21.958Z,20.96
2023-03-13T12:37:17.435Z,21.05
2023-03-13T12:40:13.410Z,21.35
2023-03-13T12:43:06.798Z,21.22
2023-03-13T12:46:22.314Z,21.15
2023-03-13T12:49:50.189Z,21.37
2023-03-13T12:53:17.569Z,21.36
2023-03-13T12:56:34.452Z,21.42
2023-03-13T12:59:27.914Z,21.42
2023-03-13T13:02:20.687Z,21.74
2023-03-13T13:05:22.127Z,21.98
2023-03-13T13:08:26.087Z,22.27
2023-03-13T13:11:55.797Z,22.56
2023-03-13T13:15:03.932Z,22.42
2023-03-13T13:18:12.271Z,22.62
2023-03-13T13:21:54.230Z,22.65
2023-03-13T13:25:13.089Z,22.52
2023-03-13T13:28:29.495Z,22.33
2023-03-13T13:31:58.613Z,22.53
2023-03-13T13:35:12.136Z,22.51
2023-03-13T13:38:40.751Z,22.38
2023-03-13T13:41:37.899Z,22.26
2023-03-13T13:44:31.320Z,22.32
2023-03-13T13:47:26.736Z,22.44
2023-03-13T13:50:19.641Z,22.70
2023-03-13T13:53:33.508Z,22.97
2023-03-13T13:56:44.373Z,23.32
2023-03-13T13:59:43.167Z,23.40
2023-03-13T14:02:35.507Z,23.38
2023-03-13T14:05:27.279Z,23.48
2023-03-13T14:08:21.992Z,23.37
2023-03-13T14:11:25.610Z,23.04
2023-03-13T14:14:18.667Z,23.06
2023-03-13T14:17:10.688Z,22.93
2023-03-13T14:19:59.633Z,23.09
2023-03-13T14:22:49.500Z,23.27
2023-03-13T14:25:47.559Z,23.73
2023-03-13T14:28:36.183Z,24.01
2023-03-13T14:31:29.198Z,24.23
2023-03-13T14:34:17.828Z,24.16
2023-03-13T14:37:35.457Z,24.02
2023-03-13T14:40:29.521Z,23.88
2023-03-13T14:43:23.495Z,23.74
2023-03-13T14:46:21.147Z,23.82
2023-03-13T14:49:18.632Z,24.09
2023-03-13T14:52:15.088Z,24.07
2023-03-13T14:55:07.823Z,23.82
2023-03-13T14:57:58.274Z,23.71
2023-03-13T15:00:48.848Z,23.60
2023-03-13T15:03:38.252Z,23.62
2023-03-13T15:06:28.362Z,23.72
2023-03-13T15:09:20.797Z,23.71
2023-03-13T15:12:16.629Z,23.49
2023-03-13T15:15:05.831Z,23.01
2023-03-13T15:17:54.740Z,22.88
2023-03-13T15:20:50.722Z,23.10
2023-03-13T15:23:42.623Z,23.07
2023-03-13T15:26:31.231Z,22.83
2023-03-13T15:32:49.178Z,22.71
2023-03-13T15:35:48.752Z,22.16
2023-03-13T15:38:52.176Z,21.94
2023-03-13T15:41:41.939Z,21.76
2023-03-13T15:44:30.934Z,21.59
2023-03-13T15:47:21.766Z,21.48
2023-03-13T15:50:13.698Z,21.51
2023-03-13T15:53:02.645Z,21.48
2023-03-13T15:55:54.761Z,21.43
2023-03-13T15:58:44.766Z,21.24
2023-03-13T16:01:33.991Z,21.04
2023-03-13T16:04:23.162Z,20.88
2023-03-13T16:07:12.446Z,20.69
2023-03-13T16:10:01.426Z,20.49
2023-03-13T16:12:51.362Z,20.35
2023-03-13T16:15:40.520Z,20.22
2023-03-13T16:18:29.634Z,20.23
2023-03-13T16:21:21.453Z,20.27
2023-03-13T16:24:10.137Z,20.15
2023-03-13T16:26:59.329Z,20.08
2023-03-13T16:29:49.407Z,19.99
2023-03-13T16:32:38.416Z,19.90
2023-03-13T16:35:44.450Z,19.90
2023-03-13T16:38:46.367Z,19.74
2023-03-13T16:42:31.285Z,19.52
2023-03-13T16:45:23.680Z,19.30
2023-03-13T16:48:30.417Z,19.16
2023-03-13T16:51:36.958Z,19.10
2023-03-13T16:55:25.038Z,18.85
2023-03-13T16:58:13.843Z,18.52
2023-03-13T17:04:32.791Z,17.88
2023-03-13T17:07:23.367Z,17.84
2023-03-13T17:10:21.538Z,17.60
2023-03-13T17:13:10.089Z,17.46
2023-03-13T17:16:00.744Z,17.34
2023-03-13T17:18:53.467Z,17.22
2023-03-13T17:21:43.698Z,17.14
2023-03-13T17:24:33.090Z,16.94
2023-03-13T17:27:21.576Z,16.83
2023-03-13T17:30:20.130Z,16.76
2023-03-13T17:33:08.643Z,16.78
2023-03-13T17:35:58.755Z,16.68
2023-03-13T17:38:48.285Z,16.51
2023-03-13T17:41:37.358Z,16.47
2023-03-13T17:44:25.860Z,16.40
2023-03-13T17:47:17.700Z,16.33
2023-03-13T17:50:15.679Z,16.28
2023-03-13T17:53:06.680Z,16.15
2023-03-13T17:55:55.203Z,16.08
2023-03-13T17:58:44.216Z,16.04
2023-03-13T18:01:34.588Z,15.97
2023-03-13T18:04:23.914Z,16.03
2023-03-13T18:07:17.844Z,16.03
2023-03-13T18:10:14.975Z,15.97
2023-03-13T18:13:03.506Z,15.95
2023-03-13T18:15:52.085Z,15.79
2023-03-13T18:18:40.601Z,15.67
2023-03-13T18:21:29.937Z,15.61
2023-03-13T18:24:18.704Z,15.50
2023-03-13T18:27:13.421Z,15.43
2023-03-13T18:30:02.538Z,15.37
2023-03-13T18:32:51.163Z,15.01
2023-03-13T18:35:40.175Z,15.14
2023-03-13T18:38:28.742Z,15.00
2023-03-13T18:41:19.485Z,14.74
2023-03-13T18:44:14.561Z,14.62
2023-03-13T18:47:13.467Z,14.74
2023-03-13T18:50:02.300Z,14.70
2023-03-13T18:52:52.281Z,14.66
2023-03-13T18:55:40.862Z,14.53
2023-03-13T18:58:30.782Z,14.46
2023-03-13T19:01:22.471Z,14.50
2023-03-13T19:04:11.518Z,14.38
2023-03-13T19:07:00.111Z,14.33
2023-03-13T19:09:49.133Z,14.27
2023-03-13T19:12:37.713Z,14.15
2023-03-13T19:15:31.406Z,14.23
2023-03-13T19:18:21.238Z,14.20
2023-03-13T19:21:16.730Z,14.09
2023-03-13T19:24:06.244Z,14.09
2023-03-13T19:26:58.800Z,14.08
2023-03-13T19:29:47.888Z,14.02
2023-03-13T19:32:37.729Z,14.02
2023-03-13T19:35:27.666Z,14.03
2023-03-13T19:38:16.176Z,13.92
2023-03-13T19:41:05.433Z,13.84
2023-03-13T19:43:54.086Z,13.79
2023-03-13T19:46:44.058Z,13.71
2023-03-13T19:49:34.142Z,13.71
2023-03-13T19:52:24.090Z,13.69
2023-03-13T19:55:13.170Z,13.66
2023-03-13T19:58:03.994Z,13.62
2023-03-13T20:00:52.505Z,13.54
2023-03-13T20:03:41.778Z,13.44
2023-03-13T20:06:32.218Z,13.42
2023-03-13T20:09:23.088Z,13.43
2023-03-13T20:12:12.624Z,13.40
2023-03-13T20:15:01.211Z,13.42
2023-03-13T20:17:49.864Z,13.39
2023-03-13T20:20:38.494Z,13.26
2023-03-13T20:23:27.031Z,13.30
2023-03-13T20:26:19.508Z,13.32
2023-03-13T20:29:08.008Z,13.23
2023-03-13T20:31:59.994Z,13.17
2023-03-13T20:34:49.016Z,13.11
2023-03-13T20:37:37.533Z,13.14
2023-03-13T20:40:26.566Z,13.15
2023-03-13T20:43:16.597Z,13.13
2023-03-13T20:46:07.390Z,13.16
2023-03-13T20:48:58.867Z,13.14
2023-03-13T20:51:47.540Z,13.16
2023-03-13T20:54:37.712Z,13.21
2023-03-13T20:57:26.234Z,13.27
2023-03-13T21:00:18.057Z,13.30
2023-03-13T21:03:06.591Z,13.31
2023-03-13T21:05:56.001Z,13.26
2023-03-13T21:08:46.343Z,13.35
2023-03-13T21:11:34.870Z,13.36
2023-03-13T21:14:23.399Z,13.32
2023-03-13T21:17:13.502Z,13.17
2023-03-13T21:20:02.062Z,13.00
2023-03-13T21:22:52.445Z,12.93
2023-03-13T21:25:41.003Z,12.73
2023-03-13T21:28:30.328Z,12.74
2023-03-13T21:31:20.743Z,12.64
2023-03-13T21:34:10.696Z,12.73
2023-03-13T21:36:59.966Z,12.79
2023-03-13T21:39:53.008Z,12.73
2023-03-13T21:42:41.519Z,12.79
2023-03-13T21:45:30.983Z,12.78
2023-03-13T21:48:19.835Z,12.76
2023-03-13T21:51:12.278Z,12.66
2023-03-13T21:54:00.795Z,12.76
2023-03-13T21:56:50.329Z,12.72
2023-03-13T21:59:38.844Z,12.75
2023-03-13T22:02:28.837Z,12.76
2023-03-13T22:05:18.087Z,12.82
2023-03-13T22:08:08.592Z,12.89
2023-03-13T22:10:58.604Z,12.87
2023-03-13T22:13:48.011Z,12.67
2023-03-13T22:16:36.557Z,12.41
2023-03-13T22:19:26.591Z,12.64
2023-03-13T22:22:15.472Z,12.71
2023-03-13T22:25:07.196Z,12.80
2023-03-13T22:27:55.728Z,12.79
2023-03-13T22:30:45.418Z,12.90
2023-03-13T22:33:35.543Z,12.93
2023-03-13T22:36:24.467Z,12.95
2023-03-13T22:39:12.976Z,12.96
2023-03-13T22:42:05.380Z,12.91
2023-03-13T22:44:55.545Z,12.89
2023-03-13T22:47:45.196Z,12.91
2023-03-13T22:50:34.339Z,12.87
2023-03-13T22:53:22.868Z,12.86
2023-03-13T22:56:13.575Z,12.87
2023-03-13T22:59:03.656Z,12.85
2023-03-13T23:01:53.972Z,12.86
2023-03-13T23:04:43.156Z,12.86
2023-03-13T23:07:32.264Z,12.85
2023-03-13T23:10:22.308Z,12.89
2023-03-13T23:13:11.425Z,12.89
2023-03-13T23:16:01.383Z,12.89
2023-03-13T23:18:51.806Z,12.89
2023-03-13T23:21:40.330Z,12.87
2023-03-13T23:24:29.269Z,12.86
2023-03-13T23:27:17.780Z,12.85
2023-03-13T23:30:10.037Z,12.85
2023-03-13T23:32:59.930Z,12.84
2023-03-13T23:35:49.258Z,12.84
2023-03-13T23:38:37.810Z,12.84
2023-03-13T23:41:28.037Z,12.84
2023-03-13T23:44:16.625Z,12.83
2023-03-13T23:47:06.145Z,12.81
2023-03-13T23:49:56.068Z,12.82
2023-03-13T23:52:46.470Z,12.83
2023-03-13T23:55:35.382Z,12.82
2023-03-13T23:58:23.873Z,12.73
